createdAt,value
2019-05-07T00:00:55.906Z,4.00
2019-05-07T00:03:26.785Z,4.10
2019-05-07T00:05:55.725Z,4.10
2019-05-07T00:08:26.088Z,4.10
2019-05-07T00:10:55.599Z,4.00
2019-05-07T00:13:27.096Z,3.90
2019-05-07T00:15:56.204Z,3.90
2019-05-07T00:18:26.690Z,3.80
2019-05-07T00:20:55.123Z,3.70
2019-05-07T00:23:26.705Z,3.80
2019-05-07T00:25:56.542Z,3.70
2019-05-07T00:28:25.642Z,3.50
2019-05-07T00:30:56.171Z,3.50
2019-05-07T00:33:25.246Z,3.40
2019-05-07T00:35:57.798Z,3.50
2019-05-07T00:38:31.950Z,3.70
2019-05-07T00:41:06.945Z,3.40
2019-05-07T00:43:36.479Z,3.50
2019-05-07T00:46:07.035Z,3.80
2019-05-07T00:48:41.705Z,3.70
2019-05-07T00:51:25.097Z,3.70
2019-05-07T00:53:57.162Z,3.80
2019-05-07T00:56:28.496Z,3.60
2019-05-07T00:59:05.612Z,3.70
2019-05-07T01:01:36.668Z,3.50
2019-05-07T01:04:07.062Z,3.20
2019-05-07T01:06:37.013Z,3.40
2019-05-07T01:09:07.155Z,3.30
2019-05-07T01:11:36.708Z,3.40
2019-05-07T01:14:07.003Z,3.50
2019-05-07T01:16:35.625Z,3.20
2019-05-07T01:19:06.423Z,3.30
2019-05-07T01:21:37.320Z,3.20
2019-05-07T01:24:08.911Z,3.00
2019-05-07T01:26:38.582Z,3.10
2019-05-07T01:29:08.952Z,3.10
2019-05-07T01:31:39.153Z,3.00
2019-05-07T01:34:13.628Z,2.90
2019-05-07T01:36:45.817Z,2.90
2019-05-07T01:39:16.815Z,2.90
2019-05-07T01:41:46.640Z,3.00
2019-05-07T01:44:24.982Z,3.10
2019-05-07T01:46:53.685Z,3.20
2019-05-07T01:49:24.018Z,2.90
2019-05-07T01:51:54.475Z,2.90
2019-05-07T01:54:24.154Z,2.90
2019-05-07T01:56:52.244Z,3.10
2019-05-07T01:59:22.506Z,3.20
2019-05-07T02:01:53.156Z,3.20
2019-05-07T02:04:23.976Z,3.30
2019-05-07T02:07:08.197Z,3.40
2019-05-07T02:09:47.698Z,3.30
2019-05-07T02:12:19.647Z,3.30
2019-05-07T02:14:48.838Z,3.40
2019-05-07T02:17:18.678Z,3.40
2019-05-07T02:19:47.973Z,3.30
2019-05-07T02:22:18.184Z,3.40
2019-05-07T02:24:48.837Z,3.30
2019-05-07T02:27:17.588Z,3.10
2019-05-07T02:29:46.966Z,3.30
2019-05-07T02:32:18.836Z,3.20
2019-05-07T02:34:49.832Z,3.10
2019-05-07T02:37:27.502Z,3.00
2019-05-07T02:40:04.211Z,3.20
2019-05-07T02:42:33.582Z,3.40
2019-05-07T02:45:06.529Z,3.30
2019-05-07T02:47:36.381Z,3.30
2019-05-07T02:50:15.421Z,3.10
2019-05-07T02:52:53.756Z,3.10
2019-05-07T02:55:35.025Z,3.50
2019-05-07T02:58:05.059Z,3.60
2019-05-07T03:00:35.056Z,3.60
2019-05-07T03:03:05.221Z,3.70
2019-05-07T03:05:35.187Z,3.60
2019-05-07T03:08:08.341Z,3.60
2019-05-07T03:10:38.257Z,3.60
2019-05-07T03:13:07.520Z,3.60
2019-05-07T03:15:38.921Z,3.80
2019-05-07T03:18:09.115Z,3.80
2019-05-07T03:20:55.040Z,3.60
2019-05-07T03:23:28.737Z,3.70
2019-05-07T03:26:03.972Z,3.70
2019-05-07T03:28:34.555Z,3.70
2019-05-07T03:31:16.558Z,3.80
2019-05-07T03:33:48.307Z,3.80
2019-05-07T03:36:25.780Z,3.90
2019-05-07T03:38:53.820Z,3.90
2019-05-07T03:41:26.470Z,4.10
2019-05-07T03:43:55.183Z,4.30
2019-05-07T03:46:24.011Z,4.40
2019-05-07T03:48:53.474Z,4.40
2019-05-07T03:51:24.042Z,4.40
2019-05-07T03:53:54.059Z,4.50
2019-05-07T03:56:24.360Z,4.50
2019-05-07T03:58:53.341Z,4.40
2019-05-07T04:01:24.550Z,4.30
2019-05-07T04:03:54.263Z,4.50
2019-05-07T04:06:24.220Z,4.60
2019-05-07T04:08:57.765Z,4.60
2019-05-07T04:11:27.355Z,4.70
2019-05-07T04:13:55.933Z,4.70
2019-05-07T04:16:26.661Z,4.70
2019-05-07T04:18:57.006Z,4.70
2019-05-07T04:21:28.122Z,4.70
2019-05-07T04:24:14.224Z,4.80
2019-05-07T04:26:58.317Z,4.70
2019-05-07T04:29:27.848Z,4.80
2019-05-07T04:32:03.036Z,5.00
2019-05-07T04:34:47.685Z,5.00
2019-05-07T04:37:18.491Z,4.90
2019-05-07T04:39:55.588Z,4.90
2019-05-07T04:42:24.738Z,5.00
2019-05-07T04:44:55.389Z,5.00
2019-05-07T04:47:38.444Z,4.90
2019-05-07T04:49:58.503Z,4.90
2019-05-07T04:52:38.975Z,4.90
2019-05-07T04:55:09.197Z,4.90
2019-05-07T04:57:39.602Z,4.80
2019-05-07T05:00:13.171Z,4.70
2019-05-07T05:02:53.691Z,4.70
2019-05-07T05:05:24.444Z,4.80
2019-05-07T05:07:54.731Z,4.80
2019-05-07T05:10:23.358Z,4.80
2019-05-07T05:12:53.586Z,4.80
2019-05-07T05:15:23.296Z,4.90
2019-05-07T05:17:54.133Z,5.00
2019-05-07T05:20:42.786Z,4.90
2019-05-07T05:23:35.177Z,4.80
2019-05-07T05:26:24.717Z,4.90
2019-05-07T05:29:12.892Z,5.00
2019-05-07T05:31:59.809Z,4.80
2019-05-07T05:34:48.890Z,5.00
2019-05-07T05:37:36.884Z,5.20
2019-05-07T05:40:25.208Z,5.20
2019-05-07T05:43:23.792Z,5.10
2019-05-07T05:46:12.913Z,5.20
2019-05-07T05:49:02.552Z,5.30
2019-05-07T05:52:03.963Z,5.30
2019-05-07T05:54:53.758Z,5.30
2019-05-07T05:57:53.025Z,5.40
2019-05-07T06:00:42.323Z,5.20
2019-05-07T06:03:32.235Z,5.20
2019-05-07T06:06:21.931Z,5.10
2019-05-07T06:09:12.328Z,5.30
2019-05-07T06:12:08.720Z,5.50
2019-05-07T06:14:58.657Z,5.60
2019-05-07T06:18:02.578Z,5.70
2019-05-07T06:20:54.439Z,5.70
2019-05-07T06:23:46.278Z,5.60
2019-05-07T06:26:33.243Z,5.40
2019-05-07T06:29:23.092Z,5.50
2019-05-07T06:32:12.854Z,5.70
2019-05-07T06:35:03.121Z,5.90
2019-05-07T06:37:52.192Z,6.00
2019-05-07T06:40:48.747Z,5.90
2019-05-07T06:43:42.604Z,5.90
2019-05-07T06:46:29.723Z,5.80
2019-05-07T06:49:17.761Z,5.80
2019-05-07T06:52:04.784Z,5.60
2019-05-07T06:54:52.933Z,5.80
2019-05-07T06:57:42.529Z,5.70
2019-05-07T07:00:44.061Z,5.90
2019-05-07T07:03:34.175Z,5.90
2019-05-07T07:06:24.867Z,6.00
2019-05-07T07:09:14.140Z,5.90
2019-05-07T07:12:03.271Z,6.10
2019-05-07T07:14:51.769Z,6.20
2019-05-07T07:17:41.354Z,6.30
2019-05-07T07:20:29.029Z,6.50
2019-05-07T07:23:16.723Z,6.40
2019-05-07T07:26:05.438Z,6.40
2019-05-07T07:28:54.366Z,6.30
2019-05-07T07:31:42.983Z,6.30
2019-05-07T07:34:33.066Z,6.30
2019-05-07T07:37:24.866Z,6.40
2019-05-07T07:40:15.102Z,6.80
2019-05-07T07:43:06.472Z,6.60
2019-05-07T07:45:52.859Z,6.70
2019-05-07T07:48:43.218Z,6.80
2019-05-07T07:51:38.847Z,7.00
2019-05-07T07:54:22.686Z,7.00
2019-05-07T07:57:13.750Z,7.10
2019-05-07T08:00:03.132Z,7.10
2019-05-07T08:02:54.364Z,7.20
2019-05-07T08:05:42.876Z,7.40
2019-05-07T08:08:32.783Z,7.40
2019-05-07T08:11:21.972Z,7.20
2019-05-07T08:14:09.477Z,7.20
2019-05-07T08:16:57.042Z,7.40
2019-05-07T08:19:45.084Z,7.40
2019-05-07T08:22:33.856Z,7.60
2019-05-07T08:25:22.913Z,8.10
2019-05-07T08:28:11.924Z,8.10
2019-05-07T08:31:12.121Z,8.60
2019-05-07T08:34:01.979Z,8.80
2019-05-07T08:36:50.115Z,9.10
2019-05-07T08:39:37.810Z,9.00
2019-05-07T08:42:26.383Z,9.00
2019-05-07T08:45:32.617Z,8.90
2019-05-07T08:48:24.896Z,9.40
2019-05-07T08:51:12.921Z,9.40
2019-05-07T08:54:02.618Z,9.60
2019-05-07T08:56:52.662Z,10.00
2019-05-07T08:59:38.758Z,10.20
2019-05-07T09:02:26.164Z,10.20
2019-05-07T09:05:15.302Z,10.40
2019-05-07T09:08:04.197Z,10.60
2019-05-07T09:10:52.579Z,10.80
2019-05-07T09:13:39.414Z,10.90
2019-05-07T09:16:31.828Z,11.10
2019-05-07T09:19:21.680Z,11.10
2019-05-07T09:22:09.127Z,11.40
2019-05-07T09:24:56.826Z,11.60
2019-05-07T09:27:45.608Z,11.60
2019-05-07T09:30:42.074Z,11.70
2019-05-07T09:33:32.258Z,11.90
2019-05-07T09:36:22.774Z,12.30
2019-05-07T09:39:12.119Z,12.20
2019-05-07T09:42:02.043Z,12.50
2019-05-07T09:44:52.753Z,12.80
2019-05-07T09:47:41.800Z,12.70
2019-05-07T09:50:29.366Z,12.80
2019-05-07T09:53:18.359Z,12.80
2019-05-07T09:56:06.097Z,13.00
2019-05-07T09:58:53.270Z,13.00
2019-05-07T10:01:39.759Z,13.00
2019-05-07T10:04:27.420Z,13.10
2019-05-07T10:07:15.239Z,13.10
2019-05-07T10:10:03.431Z,12.90
2019-05-07T10:12:58.683Z,13.20
2019-05-07T10:15:47.381Z,13.40
2019-05-07T10:18:35.350Z,13.50
2019-05-07T10:21:23.680Z,13.80
2019-05-07T10:24:12.958Z,14.20
2019-05-07T10:27:02.215Z,14.00
2019-05-07T10:29:49.753Z,14.00
2019-05-07T10:32:37.305Z,14.00
2019-05-07T10:35:23.954Z,14.40
2019-05-07T10:38:12.943Z,14.80
2019-05-07T10:41:00.147Z,14.80
2019-05-07T10:43:47.317Z,15.00
2019-05-07T10:46:53.196Z,15.00
2019-05-07T10:49:42.689Z,15.00
2019-05-07T10:52:31.845Z,15.00
2019-05-07T10:55:22.278Z,14.80
2019-05-07T10:58:10.947Z,15.20
2019-05-07T11:00:59.309Z,14.80
2019-05-07T11:03:47.503Z,14.70
2019-05-07T11:06:34.351Z,14.60
2019-05-07T11:09:22.517Z,14.50
2019-05-07T11:12:10.293Z,14.60
2019-05-07T11:14:57.245Z,15.40
2019-05-07T11:17:49.240Z,15.70
2019-05-07T11:20:46.593Z,15.60
2019-05-07T11:23:25.446Z,16.00
2019-05-07T11:26:13.178Z,15.90
2019-05-07T11:28:59.646Z,16.30
2019-05-07T11:31:48.285Z,16.40
2019-05-07T11:34:37.160Z,16.20
2019-05-07T11:37:24.541Z,16.20
2019-05-07T11:40:13.438Z,16.60
2019-05-07T11:43:14.737Z,16.90
2019-05-07T11:46:03.500Z,16.80
2019-05-07T11:48:52.183Z,17.10
2019-05-07T11:51:47.346Z,17.30
2019-05-07T11:54:35.616Z,17.40
2019-05-07T11:57:24.497Z,16.80
2019-05-07T12:00:15.851Z,16.90
2019-05-07T12:03:04.483Z,17.10
2019-05-07T12:05:52.641Z,17.60
2019-05-07T12:08:45.887Z,17.40
2019-05-07T12:11:32.089Z,17.90
2019-05-07T12:14:29.765Z,17.80
2019-05-07T12:17:07.596Z,17.30
2019-05-07T12:19:53.426Z,17.60
2019-05-07T12:22:48.096Z,18.10
2019-05-07T12:25:35.966Z,18.00
2019-05-07T12:28:24.151Z,17.40
2019-05-07T12:31:13.661Z,17.30
2019-05-07T12:34:02.927Z,17.60
2019-05-07T12:36:52.329Z,17.90
2019-05-07T12:39:39.279Z,18.00
2019-05-07T12:42:27.067Z,18.50
2019-05-07T12:45:15.822Z,18.70
2019-05-07T12:48:03.463Z,18.70
2019-05-07T12:50:52.255Z,19.30
2019-05-07T12:53:42.698Z,19.20
2019-05-07T12:56:32.044Z,19.50
2019-05-07T12:59:18.248Z,19.40
2019-05-07T13:02:21.683Z,20.00
2019-05-07T13:04:58.096Z,19.50
2019-05-07T13:07:47.644Z,19.50
2019-05-07T13:10:34.865Z,19.50
2019-05-07T13:13:22.720Z,19.80
2019-05-07T13:16:12.818Z,20.30
2019-05-07T13:18:59.470Z,20.30
2019-05-07T13:21:49.861Z,20.20
2019-05-07T13:24:38.011Z,20.20
2019-05-07T13:27:25.398Z,20.10
2019-05-07T13:30:13.404Z,20.10
2019-05-07T13:33:02.824Z,20.40
2019-05-07T13:35:52.196Z,19.90
2019-05-07T13:38:42.695Z,20.40
2019-05-07T13:41:31.449Z,20.00
2019-05-07T13:44:37.044Z,20.30
2019-05-07T13:47:27.080Z,20.20
2019-05-07T13:50:14.818Z,19.80
2019-05-07T13:53:03.225Z,19.50
2019-05-07T13:55:49.879Z,20.20
2019-05-07T13:58:37.818Z,20.10
2019-05-07T14:01:27.326Z,19.60
2019-05-07T14:04:15.754Z,18.70
2019-05-07T14:07:03.480Z,18.90
2019-05-07T14:09:52.694Z,18.60
2019-05-07T14:12:42.589Z,18.70
2019-05-07T14:15:32.095Z,19.00
2019-05-07T14:18:19.797Z,19.10
2019-05-07T14:21:07.631Z,19.00
2019-05-07T14:23:54.856Z,20.00
2019-05-07T14:26:42.781Z,19.60
2019-05-07T14:29:31.903Z,19.60
2019-05-07T14:32:26.275Z,20.00
2019-05-07T14:35:03.618Z,20.40
2019-05-07T14:37:35.591Z,21.40
2019-05-07T14:40:07.823Z,21.10
2019-05-07T14:42:39.293Z,20.40
2019-05-07T14:45:09.694Z,20.60
2019-05-07T14:47:38.724Z,20.50
2019-05-07T14:50:28.101Z,20.40
2019-05-07T14:53:13.716Z,20.80
2019-05-07T14:56:01.264Z,20.00
2019-05-07T14:58:31.888Z,20.30
2019-05-07T15:01:22.247Z,20.30
2019-05-07T15:04:02.277Z,20.70
2019-05-07T15:06:32.826Z,21.20
2019-05-07T15:09:02.304Z,21.10
2019-05-07T15:11:33.030Z,22.30
2019-05-07T15:14:20.243Z,22.10
2019-05-07T15:16:52.078Z,22.40
2019-05-07T15:19:21.755Z,21.10
2019-05-07T15:21:52.282Z,21.80
2019-05-07T15:24:41.342Z,22.50
2019-05-07T15:27:12.173Z,23.80
2019-05-07T15:29:43.464Z,22.40
2019-05-07T15:32:12.619Z,22.50
2019-05-07T15:34:42.919Z,23.20
2019-05-07T15:37:12.359Z,22.90
2019-05-07T15:39:42.177Z,22.50
2019-05-07T15:42:13.095Z,22.00
2019-05-07T15:44:44.536Z,22.30
2019-05-07T15:47:16.532Z,22.40
2019-05-07T15:49:44.598Z,22.50
2019-05-07T15:52:32.743Z,22.10
2019-05-07T15:55:06.809Z,22.20
2019-05-07T15:57:38.631Z,21.30
2019-05-07T16:00:21.643Z,20.70
2019-05-07T16:02:53.710Z,20.70
2019-05-07T16:05:23.460Z,20.00
2019-05-07T16:07:52.977Z,19.10
2019-05-07T16:10:23.342Z,18.60
2019-05-07T16:12:53.469Z,18.40
2019-05-07T16:15:25.225Z,18.20
2019-05-07T16:18:02.827Z,18.00
2019-05-07T16:20:32.750Z,17.70
2019-05-07T16:23:13.997Z,17.40
2019-05-07T16:25:34.448Z,17.40
2019-05-07T16:28:05.876Z,17.30
2019-05-07T16:30:34.050Z,17.10
2019-05-07T16:33:04.120Z,16.90
2019-05-07T16:35:35.736Z,16.80
2019-05-07T16:38:05.541Z,16.60
2019-05-07T16:40:34.515Z,16.50
2019-05-07T16:43:04.297Z,16.40
2019-05-07T16:45:37.271Z,16.10
2019-05-07T16:48:07.567Z,15.80
2019-05-07T16:50:35.957Z,15.90
2019-05-07T16:53:04.931Z,15.80
2019-05-07T16:55:37.064Z,15.80
2019-05-07T16:58:07.530Z,15.60
2019-05-07T17:00:42.260Z,15.60
2019-05-07T17:03:13.471Z,15.60
2019-05-07T17:05:44.254Z,15.70
2019-05-07T17:08:16.486Z,15.90
2019-05-07T17:10:46.892Z,15.90
2019-05-07T17:13:15.359Z,15.80
2019-05-07T17:16:03.015Z,15.80
2019-05-07T17:18:33.111Z,15.80
2019-05-07T17:21:04.509Z,15.70
2019-05-07T17:23:43.618Z,15.70
2019-05-07T17:26:04.939Z,15.80
2019-05-07T17:28:35.286Z,15.70
2019-05-07T17:31:05.397Z,15.60
2019-05-07T17:33:34.641Z,15.40
2019-05-07T17:36:04.258Z,15.40
2019-05-07T17:38:34.326Z,15.40
2019-05-07T17:41:10.803Z,15.20
2019-05-07T17:43:34.912Z,15.10
2019-05-07T17:46:08.383Z,15.10
2019-05-07T17:48:37.511Z,14.90
2019-05-07T17:51:07.770Z,14.90
2019-05-07T17:53:37.683Z,14.70
2019-05-07T17:56:08.121Z,14.40
2019-05-07T17:58:37.764Z,14.50
2019-05-07T18:01:08.777Z,14.40
2019-05-07T18:03:39.931Z,14.40
2019-05-07T18:06:08.995Z,14.30
2019-05-07T18:08:39.148Z,14.00
2019-05-07T18:11:20.249Z,14.00
2019-05-07T18:13:39.119Z,13.80
2019-05-07T18:16:12.387Z,13.70
2019-05-07T18:18:43.203Z,13.60
2019-05-07T18:21:14.114Z,13.30
2019-05-07T18:23:45.923Z,13.40
2019-05-07T18:26:27.209Z,13.30
2019-05-07T18:28:46.033Z,13.20
2019-05-07T18:31:15.915Z,13.10
2019-05-07T18:33:52.356Z,12.70
2019-05-07T18:36:22.781Z,12.80
2019-05-07T18:38:53.262Z,12.90
2019-05-07T18:41:22.686Z,12.70
2019-05-07T18:43:54.435Z,12.60
2019-05-07T18:46:22.819Z,12.50
2019-05-07T18:48:51.826Z,12.50
2019-05-07T18:51:21.664Z,12.50
2019-05-07T18:53:51.977Z,12.40
2019-05-07T18:56:22.482Z,12.40
2019-05-07T18:58:52.043Z,12.20
2019-05-07T19:01:22.665Z,11.90
2019-05-07T19:03:54.108Z,12.10
2019-05-07T19:06:23.076Z,12.10
2019-05-07T19:08:52.653Z,11.90
2019-05-07T19:11:23.830Z,11.90
2019-05-07T19:13:52.914Z,11.90
2019-05-07T19:16:23.069Z,11.80
2019-05-07T19:18:58.920Z,11.70
2019-05-07T19:21:27.579Z,11.70
2019-05-07T19:23:56.135Z,11.50
2019-05-07T19:26:26.550Z,11.40
2019-05-07T19:28:57.261Z,11.30
2019-05-07T19:34:53.423Z,11.10
2019-05-07T19:37:31.766Z,10.70
2019-05-07T19:40:05.708Z,10.70
2019-05-07T19:42:39.598Z,10.80
2019-05-07T19:45:18.298Z,10.70
2019-05-07T19:47:52.337Z,10.60
2019-05-07T19:59:24.021Z,10.10
2019-05-07T20:02:02.450Z,9.90
2019-05-07T20:04:45.326Z,9.80
2019-05-07T20:38:08.221Z,9.00
2019-05-07T20:40:39.455Z,9.20
2019-05-07T20:43:08.636Z,9.20
2019-05-07T20:45:38.646Z,9.10
2019-05-07T20:48:07.431Z,8.90
2019-05-07T20:50:35.720Z,8.80
2019-05-07T20:53:04.617Z,8.90
2019-05-07T20:55:35.337Z,8.90
2019-05-07T20:58:05.466Z,8.70
2019-05-07T21:00:35.682Z,8.60
2019-05-07T21:03:20.539Z,8.40
2019-05-07T21:05:53.386Z,8.60
2019-05-07T21:08:23.633Z,8.30
2019-05-07T21:10:53.736Z,8.10
2019-05-07T21:13:30.840Z,8.30
2019-05-07T21:15:54.804Z,8.30
2019-05-07T21:18:23.423Z,8.10
2019-05-07T21:20:54.736Z,8.20
2019-05-07T21:23:23.969Z,7.90
2019-05-07T21:25:54.793Z,8.10
2019-05-07T21:28:25.536Z,8.10
2019-05-07T21:30:54.969Z,8.20
2019-05-07T21:33:27.007Z,8.10
2019-05-07T21:35:56.941Z,8.10
2019-05-07T21:38:26.879Z,8.00
2019-05-07T21:41:06.148Z,7.90
2019-05-07T21:43:37.007Z,8.00
2019-05-07T21:46:07.011Z,8.00
2019-05-07T21:48:37.814Z,8.10
2019-05-07T21:51:07.368Z,7.70
2019-05-07T21:53:42.987Z,7.30
2019-05-07T21:56:23.155Z,7.50
2019-05-07T21:58:56.798Z,7.60
2019-05-07T22:01:27.232Z,7.30
2019-05-07T22:04:01.737Z,7.30
2019-05-07T22:06:30.068Z,7.30
2019-05-07T22:09:02.002Z,7.30
2019-05-07T22:11:33.227Z,7.20
2019-05-07T22:14:03.771Z,6.90
2019-05-07T22:16:33.012Z,7.00
2019-05-07T22:19:05.958Z,7.20
2019-05-07T22:21:35.672Z,7.20
2019-05-07T22:24:06.624Z,7.00
2019-05-07T22:26:34.976Z,7.20
2019-05-07T22:29:08.718Z,7.50
2019-05-07T22:31:44.206Z,7.60
2019-05-07T22:34:17.275Z,7.30
2019-05-07T22:36:46.366Z,7.30
2019-05-07T22:39:22.090Z,7.30
2019-05-07T22:41:53.411Z,7.30
2019-05-07T22:44:26.073Z,7.40
2019-05-07T22:46:53.712Z,7.50
2019-05-07T22:49:23.936Z,7.60
2019-05-07T22:51:54.960Z,7.60
2019-05-07T22:54:26.372Z,7.40
2019-05-07T22:56:58.275Z,7.30
2019-05-07T22:59:28.007Z,7.00
2019-05-07T23:01:58.178Z,6.90
2019-05-07T23:04:28.166Z,6.50
2019-05-07T23:06:57.738Z,6.30
2019-05-07T23:09:27.364Z,6.20
2019-05-07T23:11:56.707Z,6.30
2019-05-07T23:14:26.599Z,6.50
2019-05-07T23:16:55.581Z,6.80
2019-05-07T23:19:25.638Z,6.90
2019-05-07T23:21:54.704Z,6.90
2019-05-07T23:24:27.226Z,6.70
2019-05-07T23:26:57.847Z,6.50
2019-05-07T23:29:28.112Z,6.50
2019-05-07T23:31:58.662Z,6.40
2019-05-07T23:34:27.720Z,6.40
2019-05-07T23:36:58.946Z,6.50
2019-05-07T23:39:32.089Z,6.40
2019-05-07T23:42:07.542Z,6.30
2019-05-07T23:44:39.084Z,6.30
2019-05-07T23:47:08.636Z,6.40
2019-05-07T23:49:38.702Z,6.30
2019-05-07T23:52:07.781Z,6.30
2019-05-07T23:54:44.943Z,5.90
2019-05-07T23:57:16.073Z,5.80
2019-05-07T23:59:45.426Z,6.00
